createdAt,value
2018-10-17T00:01:15.051Z,8.87
2018-10-17T00:03:42.168Z,5.60
2018-10-17T00:06:09.593Z,4.40
2018-10-17T00:08:37.465Z,4.23
2018-10-17T00:11:04.655Z,4.30
2018-10-17T00:13:32.151Z,4.50
2018-10-17T00:15:59.308Z,4.27
2018-10-17T00:18:26.472Z,4.53
2018-10-17T00:20:53.715Z,4.77
2018-10-17T00:23:21.857Z,4.97
2018-10-17T00:25:49.122Z,4.57
2018-10-17T00:28:16.293Z,5.20
2018-10-17T00:30:43.564Z,5.03
2018-10-17T00:33:10.786Z,4.53
2018-10-17T00:35:38.025Z,4.13
2018-10-17T00:38:05.576Z,5.30
2018-10-17T00:40:32.851Z,4.20
2018-10-17T00:43:00.154Z,5.00
2018-10-17T00:45:27.396Z,4.80
2018-10-17T00:47:54.668Z,5.00
2018-10-17T00:50:21.936Z,4.50
2018-10-17T00:52:49.108Z,4.37
2018-10-17T00:55:16.357Z,4.97
2018-10-17T00:57:43.532Z,4.60
2018-10-17T01:00:10.722Z,4.80
2018-10-17T01:02:37.932Z,5.00
2018-10-17T01:05:05.145Z,4.63
2018-10-17T01:07:32.364Z,4.33
2018-10-17T01:09:59.659Z,5.20
2018-10-17T01:12:26.924Z,4.73
2018-10-17T01:14:54.104Z,4.90
2018-10-17T01:17:21.303Z,5.60
2018-10-17T01:19:48.486Z,4.53
2018-10-17T01:22:15.686Z,5.03
2018-10-17T01:24:42.897Z,5.23
2018-10-17T01:27:10.069Z,5.00
2018-10-17T01:29:37.278Z,5.77
2018-10-17T01:32:04.815Z,5.93
2018-10-17T01:34:31.961Z,5.37
2018-10-17T01:36:59.161Z,4.70
2018-10-17T01:39:26.321Z,5.80
2018-10-17T01:41:53.582Z,5.93
2018-10-17T01:44:20.854Z,5.83
2018-10-17T01:46:48.008Z,5.57
2018-10-17T01:49:15.285Z,5.90
2018-10-17T01:51:42.480Z,4.83
2018-10-17T01:54:09.650Z,5.33
2018-10-17T01:56:36.875Z,5.67
2018-10-17T01:59:04.805Z,5.97
2018-10-17T02:01:31.875Z,5.37
2018-10-17T02:03:59.063Z,4.90
2018-10-17T02:06:26.288Z,5.13
2018-10-17T02:08:53.560Z,5.63
2018-10-17T02:11:20.806Z,5.53
2018-10-17T02:13:47.948Z,5.23
2018-10-17T02:16:15.125Z,6.13
2018-10-17T02:18:43.170Z,5.77
2018-10-17T02:21:10.340Z,5.33
2018-10-17T02:23:37.796Z,5.87
2018-10-17T02:26:05.008Z,5.30
2018-10-17T02:28:32.248Z,5.40
2018-10-17T02:30:59.446Z,6.37
2018-10-17T02:33:26.677Z,5.53
2018-10-17T02:35:53.860Z,5.90
2018-10-17T02:38:21.030Z,5.90
2018-10-17T02:40:48.279Z,5.47
2018-10-17T02:43:15.553Z,5.90
2018-10-17T02:45:42.724Z,5.60
2018-10-17T02:48:09.963Z,4.80
2018-10-17T02:50:37.319Z,6.40
2018-10-17T02:53:04.724Z,5.47
2018-10-17T02:55:31.901Z,5.90
2018-10-17T02:57:59.141Z,5.90
2018-10-17T03:00:26.342Z,5.23
2018-10-17T03:02:53.537Z,5.30
2018-10-17T03:05:20.779Z,5.83
2018-10-17T03:07:47.973Z,5.63
2018-10-17T03:10:15.237Z,5.90
2018-10-17T03:12:42.564Z,5.70
2018-10-17T03:15:09.822Z,5.90
2018-10-17T03:17:37.043Z,5.30
2018-10-17T03:20:05.945Z,6.30
2018-10-17T03:22:33.165Z,7.03
2018-10-17T03:25:00.374Z,6.23
2018-10-17T03:27:27.636Z,5.60
2018-10-17T03:29:54.877Z,5.93
2018-10-17T03:32:22.030Z,5.50
2018-10-17T03:34:49.205Z,6.03
2018-10-17T03:37:16.530Z,5.90
2018-10-17T03:39:43.585Z,5.70
2018-10-17T03:42:10.765Z,6.77
2018-10-17T03:44:37.965Z,5.93
2018-10-17T03:47:05.267Z,5.60
2018-10-17T03:49:32.394Z,6.07
2018-10-17T03:51:59.586Z,6.00
2018-10-17T03:54:27.831Z,5.73
2018-10-17T03:56:55.086Z,6.97
2018-10-17T03:59:22.387Z,6.30
2018-10-17T04:01:49.554Z,5.80
2018-10-17T04:04:16.811Z,5.53
2018-10-17T04:06:44.040Z,6.20
2018-10-17T04:09:11.210Z,5.70
2018-10-17T04:11:38.422Z,6.27
2018-10-17T04:14:05.637Z,6.40
2018-10-17T04:16:32.853Z,6.30
2018-10-17T04:19:00.137Z,5.90
2018-10-17T04:21:27.333Z,5.90
2018-10-17T04:23:54.757Z,5.43
2018-10-17T04:26:21.953Z,6.47
2018-10-17T04:28:49.091Z,6.40
2018-10-17T04:31:16.507Z,6.00
2018-10-17T04:33:43.630Z,5.90
2018-10-17T04:36:10.857Z,6.13
2018-10-17T04:38:38.133Z,6.23
2018-10-17T04:41:05.761Z,6.10
2018-10-17T04:43:32.851Z,6.60
2018-10-17T04:46:00.074Z,6.20
2018-10-17T04:48:27.274Z,6.30
2018-10-17T04:50:54.457Z,5.73
2018-10-17T04:53:21.728Z,5.57
2018-10-17T04:55:48.938Z,6.13
2018-10-17T04:58:16.142Z,6.17
2018-10-17T05:00:43.429Z,7.40
2018-10-17T05:03:10.784Z,5.23
2018-10-17T05:05:38.972Z,6.77
2018-10-17T05:08:06.239Z,6.03
2018-10-17T05:10:33.469Z,5.73
2018-10-17T05:13:00.712Z,6.00
2018-10-17T05:15:28.066Z,6.93
2018-10-17T05:17:55.248Z,6.40
2018-10-17T05:20:23.328Z,6.20
2018-10-17T05:22:52.116Z,6.60
2018-10-17T05:25:24.666Z,6.50
2018-10-17T05:27:51.920Z,6.10
2018-10-17T05:30:19.206Z,6.10
2018-10-17T05:33:06.592Z,6.03
2018-10-17T05:35:33.820Z,6.77
2018-10-17T05:38:01.320Z,6.40
2018-10-17T05:40:28.617Z,6.40
2018-10-17T05:42:55.808Z,6.77
2018-10-17T05:45:23.072Z,6.80
2018-10-17T05:47:50.309Z,6.13
2018-10-17T05:50:17.516Z,5.93
2018-10-17T05:52:44.699Z,6.97
2018-10-17T05:55:12.008Z,5.93
2018-10-17T05:57:39.200Z,6.93
2018-10-17T06:00:06.984Z,6.53
2018-10-17T06:02:35.317Z,6.60
2018-10-17T06:05:02.489Z,6.67
2018-10-17T06:07:29.936Z,6.53
2018-10-17T06:09:57.078Z,6.40
2018-10-17T06:12:24.253Z,6.50
2018-10-17T06:14:51.360Z,6.50
2018-10-17T06:17:18.652Z,7.00
2018-10-17T06:19:45.728Z,9.07
2018-10-17T06:22:12.931Z,7.97
2018-10-17T06:24:40.229Z,7.60
2018-10-17T06:27:07.411Z,6.40
2018-10-17T06:29:34.651Z,8.20
2018-10-17T06:32:01.857Z,6.70
2018-10-17T06:34:29.044Z,6.50
2018-10-17T06:36:56.406Z,6.37
2018-10-17T06:39:23.679Z,6.93
2018-10-17T06:41:50.864Z,10.60
2018-10-17T06:44:18.072Z,8.00
2018-10-17T06:46:45.314Z,7.37
2018-10-17T06:49:12.557Z,9.30
2018-10-17T06:51:39.676Z,7.10
2018-10-17T06:54:07.206Z,6.90
2018-10-17T06:56:34.240Z,7.00
2018-10-17T06:59:01.439Z,7.33
2018-10-17T07:01:28.681Z,6.80
2018-10-17T07:03:55.796Z,7.83
2018-10-17T07:06:23.009Z,7.50
2018-10-17T07:08:50.260Z,7.37
2018-10-17T07:11:17.619Z,8.40
2018-10-17T07:13:44.788Z,7.20
2018-10-17T07:16:12.028Z,7.83
2018-10-17T07:18:39.193Z,7.20
2018-10-17T07:21:06.612Z,8.20
2018-10-17T07:23:33.824Z,7.47
2018-10-17T07:26:01.073Z,7.87
2018-10-17T07:28:30.417Z,7.23
2018-10-17T07:30:57.681Z,8.00
2018-10-17T07:33:24.921Z,8.03
2018-10-17T07:35:52.226Z,8.03
2018-10-17T07:38:19.277Z,8.33
2018-10-17T07:40:46.496Z,8.40
2018-10-17T07:43:13.714Z,7.90
2018-10-17T07:45:41.028Z,9.37
2018-10-17T07:48:08.269Z,8.13
2018-10-17T07:50:35.457Z,8.40
2018-10-17T07:53:02.721Z,9.40
2018-10-17T07:55:29.849Z,9.00
2018-10-17T07:57:57.145Z,8.07
2018-10-17T08:00:24.465Z,9.10
2018-10-17T08:02:51.580Z,8.80
2018-10-17T08:05:18.780Z,9.60
2018-10-17T08:07:46.033Z,9.43
2018-10-17T08:10:13.417Z,9.20
2018-10-17T08:12:40.624Z,9.00
2018-10-17T08:15:08.404Z,8.50
2018-10-17T08:17:35.761Z,9.20
2018-10-17T08:20:03.039Z,9.40
2018-10-17T08:22:30.213Z,10.43
2018-10-17T08:24:57.408Z,9.07
2018-10-17T08:27:24.627Z,9.00
2018-10-17T08:29:51.806Z,9.10
2018-10-17T08:32:18.977Z,9.47
2018-10-17T08:34:46.197Z,8.50
2018-10-17T08:37:13.756Z,9.20
2018-10-17T08:39:40.637Z,9.17
2018-10-17T08:42:07.889Z,9.30
2018-10-17T08:44:35.034Z,9.27
2018-10-17T08:47:02.222Z,8.90
2018-10-17T08:49:29.456Z,10.07
2018-10-17T08:51:56.609Z,9.60
2018-10-17T08:54:23.834Z,10.80
2018-10-17T08:56:51.056Z,10.53
2018-10-17T08:59:18.316Z,10.00
2018-10-17T09:01:45.510Z,10.27
2018-10-17T09:04:12.708Z,9.83
2018-10-17T09:06:40.459Z,9.73
2018-10-17T09:09:08.973Z,9.80
2018-10-17T09:11:36.325Z,11.07
2018-10-17T09:14:04.205Z,9.80
2018-10-17T09:16:31.436Z,9.10
2018-10-17T09:18:58.580Z,10.97
2018-10-17T09:21:26.278Z,11.33
2018-10-17T09:23:53.108Z,10.70
2018-10-17T09:26:20.237Z,11.37
2018-10-17T09:28:47.490Z,12.60
2018-10-17T09:31:14.676Z,9.47
2018-10-17T09:33:41.853Z,9.40
2018-10-17T09:36:09.103Z,9.40
2018-10-17T09:38:36.233Z,8.67
2018-10-17T09:41:03.476Z,10.13
2018-10-17T09:43:30.644Z,9.57
2018-10-17T09:45:57.883Z,10.03
2018-10-17T09:48:25.050Z,9.50
2018-10-17T09:50:52.201Z,9.40
2018-10-17T09:53:19.511Z,10.53
2018-10-17T09:55:46.676Z,8.63
2018-10-17T09:58:13.972Z,9.40
2018-10-17T10:00:46.817Z,8.83
2018-10-17T10:03:14.001Z,9.27
2018-10-17T10:05:41.201Z,8.83
2018-10-17T10:08:08.438Z,10.33
2018-10-17T10:10:35.636Z,14.40
2018-10-17T10:13:02.878Z,11.03
2018-10-17T10:15:30.157Z,8.80
2018-10-17T10:17:57.388Z,9.47
2018-10-17T10:20:24.580Z,8.30
2018-10-17T10:22:51.825Z,9.53
2018-10-17T10:25:19.110Z,8.80
2018-10-17T10:27:46.218Z,9.07
2018-10-17T10:30:13.410Z,8.10
2018-10-17T10:32:40.548Z,7.90
2018-10-17T10:35:07.833Z,7.80
2018-10-17T10:37:35.056Z,8.07
2018-10-17T10:40:02.352Z,7.77
2018-10-17T10:42:29.470Z,8.47
2018-10-17T10:44:56.765Z,8.07
2018-10-17T10:47:23.965Z,8.07
2018-10-17T10:49:51.192Z,7.90
2018-10-17T10:52:18.364Z,7.00
2018-10-17T10:54:45.532Z,7.00
2018-10-17T10:57:12.788Z,7.10
2018-10-17T10:59:40.094Z,7.57
2018-10-17T11:02:07.167Z,9.23
2018-10-17T11:04:34.444Z,9.83
2018-10-17T11:07:01.545Z,7.90
2018-10-17T11:09:28.817Z,9.03
2018-10-17T11:11:56.046Z,7.57
2018-10-17T11:14:23.309Z,10.03
2018-10-17T11:16:50.395Z,10.00
2018-10-17T11:19:17.593Z,8.30
2018-10-17T11:21:44.789Z,9.50
2018-10-17T11:24:11.989Z,9.30
2018-10-17T11:26:39.221Z,8.93
2018-10-17T11:29:06.482Z,9.67
2018-10-17T11:31:33.513Z,8.37
2018-10-17T11:34:00.764Z,8.30
2018-10-17T11:36:27.888Z,8.53
2018-10-17T11:38:55.099Z,7.47
2018-10-17T11:41:22.363Z,7.40
2018-10-17T11:43:49.471Z,7.97
2018-10-17T11:46:16.677Z,8.47
2018-10-17T11:48:43.845Z,6.67
2018-10-17T11:51:11.092Z,7.83
2018-10-17T11:53:38.213Z,8.00
2018-10-17T11:56:05.441Z,6.83
2018-10-17T11:58:32.696Z,7.60
2018-10-17T12:00:59.976Z,7.67
2018-10-17T12:03:27.340Z,7.13
2018-10-17T12:05:54.522Z,10.73
2018-10-17T12:08:21.585Z,13.63
2018-10-17T12:10:48.776Z,11.03
2018-10-17T12:13:15.959Z,8.77
2018-10-17T12:15:43.752Z,17.60
2018-10-17T12:18:11.326Z,13.67
2018-10-17T12:20:38.489Z,7.70
2018-10-17T12:23:05.792Z,7.13
2018-10-17T12:25:33.025Z,7.67
2018-10-17T12:28:00.396Z,8.53
2018-10-17T12:30:27.471Z,6.50
2018-10-17T12:32:54.652Z,7.13
2018-10-17T12:35:21.853Z,7.60
2018-10-17T12:37:49.368Z,6.63
2018-10-17T12:40:16.658Z,6.77
2018-10-17T12:42:43.884Z,6.90
2018-10-17T12:45:11.145Z,7.30
2018-10-17T12:47:38.312Z,5.87
2018-10-17T12:50:06.581Z,6.23
2018-10-17T12:52:33.792Z,5.80
2018-10-17T12:55:00.964Z,6.23
2018-10-17T12:57:29.157Z,6.90
2018-10-17T12:59:56.513Z,6.03
2018-10-17T13:02:23.660Z,5.83
2018-10-17T13:04:50.846Z,5.77
2018-10-17T13:07:18.129Z,5.60
2018-10-17T13:09:45.268Z,6.57
2018-10-17T13:12:12.442Z,6.70
2018-10-17T13:14:39.645Z,5.80
2018-10-17T13:17:06.905Z,6.37
2018-10-17T13:19:34.036Z,5.77
2018-10-17T13:22:01.204Z,5.63
2018-10-17T13:24:28.449Z,6.10
2018-10-17T13:26:55.637Z,6.00
2018-10-17T13:29:23.400Z,6.23
2018-10-17T13:31:50.572Z,6.70
2018-10-17T13:34:17.803Z,5.80
2018-10-17T13:36:44.940Z,6.30
2018-10-17T13:39:13.158Z,5.47
2018-10-17T13:41:40.344Z,6.87
2018-10-17T13:44:08.261Z,6.30
2018-10-17T13:46:35.388Z,6.60
2018-10-17T13:49:02.593Z,5.90
2018-10-17T13:51:29.732Z,6.07
2018-10-17T13:53:57.166Z,6.20
2018-10-17T13:56:24.345Z,6.87
2018-10-17T13:58:51.600Z,14.00
2018-10-17T14:01:18.873Z,11.13
2018-10-17T14:03:46.001Z,8.97
2018-10-17T14:06:13.338Z,6.10
2018-10-17T14:08:40.513Z,5.80
2018-10-17T14:11:08.030Z,7.17
2018-10-17T14:13:35.321Z,6.90
2018-10-17T14:16:02.565Z,6.60
2018-10-17T14:18:29.814Z,5.53
2018-10-17T14:20:57.101Z,5.97
2018-10-17T14:23:24.385Z,5.60
2018-10-17T14:25:51.497Z,6.30
2018-10-17T14:28:18.713Z,5.87
2018-10-17T14:30:45.961Z,6.07
2018-10-17T14:33:13.184Z,5.80
2018-10-17T14:35:40.406Z,5.67
2018-10-17T14:38:07.603Z,6.60
2018-10-17T14:40:34.879Z,10.67
2018-10-17T14:43:01.989Z,15.80
2018-10-17T14:45:29.213Z,8.13
2018-10-17T14:47:56.510Z,8.10
2018-10-17T14:50:23.653Z,6.40
2018-10-17T14:52:50.880Z,5.90
2018-10-17T14:55:18.161Z,5.90
2018-10-17T14:57:45.393Z,5.03
2018-10-17T15:00:14.137Z,6.10
2018-10-17T15:02:41.644Z,5.77
2018-10-17T15:05:09.306Z,5.73
2018-10-17T15:07:36.577Z,4.73
2018-10-17T15:10:04.017Z,5.33
2018-10-17T15:12:31.174Z,6.40
2018-10-17T15:14:58.412Z,6.10
2018-10-17T15:17:25.693Z,5.80
2018-10-17T15:19:52.897Z,6.00
2018-10-17T15:22:20.121Z,5.73
2018-10-17T15:24:47.332Z,5.60
2018-10-17T15:27:15.306Z,5.50
2018-10-17T15:29:42.490Z,6.33
2018-10-17T15:32:09.672Z,5.53
2018-10-17T15:34:36.832Z,6.07
2018-10-17T15:37:04.535Z,6.03
2018-10-17T15:39:31.648Z,5.97
2018-10-17T15:41:58.928Z,5.43
2018-10-17T15:44:26.146Z,5.80
2018-10-17T15:46:53.364Z,5.40
2018-10-17T15:49:20.573Z,5.77
2018-10-17T15:51:47.781Z,5.93
2018-10-17T15:54:15.178Z,5.07
2018-10-17T15:56:42.229Z,4.90
2018-10-17T15:59:09.487Z,6.00
2018-10-17T16:01:36.697Z,5.70
2018-10-17T16:04:03.994Z,5.90
2018-10-17T16:06:31.160Z,6.00
2018-10-17T16:08:58.380Z,5.87
2018-10-17T16:11:25.589Z,6.33
2018-10-17T16:13:52.852Z,5.80
2018-10-17T16:16:20.049Z,5.60
2018-10-17T16:18:48.126Z,5.23
2018-10-17T16:21:15.760Z,6.37
2018-10-17T16:23:42.990Z,6.00
2018-10-17T16:26:10.210Z,6.63
2018-10-17T16:28:37.428Z,6.60
2018-10-17T16:31:04.708Z,7.50
2018-10-17T16:33:31.912Z,7.07
2018-10-17T16:35:59.099Z,6.90
2018-10-17T16:38:26.265Z,6.40
2018-10-17T16:40:53.482Z,6.53
2018-10-17T16:43:20.572Z,10.73
2018-10-17T16:45:47.752Z,8.33
2018-10-17T16:48:15.044Z,11.73
2018-10-17T16:50:42.560Z,9.47
2018-10-17T16:53:09.412Z,8.40
2018-10-17T16:55:36.688Z,7.70
2018-10-17T16:58:04.123Z,7.10
2018-10-17T17:00:31.295Z,6.33
2018-10-17T17:02:58.488Z,6.47
2018-10-17T17:05:25.633Z,7.07
2018-10-17T17:07:53.377Z,5.87
2018-10-17T17:10:20.593Z,6.80
2018-10-17T17:12:47.852Z,6.40
2018-10-17T17:15:15.161Z,7.07
2018-10-17T17:17:42.305Z,7.10
2018-10-17T17:20:10.376Z,6.70
2018-10-17T17:22:38.066Z,7.00
2018-10-17T17:25:05.736Z,6.97
2018-10-17T17:27:32.953Z,6.80
2018-10-17T17:30:00.196Z,6.97
2018-10-17T17:32:27.340Z,6.40
2018-10-17T17:34:54.538Z,6.63
2018-10-17T17:37:21.745Z,6.53
2018-10-17T17:39:48.977Z,6.50
2018-10-17T17:42:16.154Z,6.20
2018-10-17T17:44:43.432Z,6.40
2018-10-17T17:47:10.645Z,6.00
2018-10-17T17:49:37.836Z,6.97
2018-10-17T17:52:05.120Z,6.17
2018-10-17T17:54:32.360Z,6.40
2018-10-17T17:56:59.641Z,8.50
2018-10-17T17:59:26.808Z,9.80
2018-10-17T18:01:54.037Z,8.77
2018-10-17T18:04:21.231Z,9.00
2018-10-17T18:06:48.391Z,9.47
2018-10-17T18:09:15.592Z,7.47
2018-10-17T18:11:42.812Z,6.60
2018-10-17T18:14:10.099Z,6.63
2018-10-17T18:16:37.332Z,6.07
2018-10-17T18:19:04.577Z,6.10
2018-10-17T18:21:31.736Z,5.90
2018-10-17T18:23:58.910Z,6.00
2018-10-17T18:26:26.064Z,6.50
2018-10-17T18:28:53.308Z,6.00
2018-10-17T18:31:20.536Z,22.33
2018-10-17T18:33:47.724Z,20.87
2018-10-17T18:36:16.189Z,10.47
2018-10-17T18:38:44.272Z,6.33
2018-10-17T18:41:11.465Z,4.90
2018-10-17T18:43:38.654Z,6.17
2018-10-17T18:46:05.892Z,7.00
2018-10-17T18:48:33.097Z,5.77
2018-10-17T18:51:00.325Z,5.20
2018-10-17T18:53:27.442Z,5.47
2018-10-17T18:55:54.612Z,5.30
2018-10-17T18:58:21.783Z,5.17
2018-10-17T19:00:49.029Z,4.50
2018-10-17T19:03:16.239Z,4.80
2018-10-17T19:05:43.838Z,4.90
2018-10-17T19:08:11.078Z,4.57
2018-10-17T19:10:38.153Z,5.17
2018-10-17T19:13:05.492Z,5.57
2018-10-17T19:15:32.740Z,5.73
2018-10-17T19:17:59.961Z,4.47
2018-10-17T19:20:27.173Z,5.17
2018-10-17T19:22:55.076Z,5.07
2018-10-17T19:25:22.488Z,5.00
2018-10-17T19:27:49.716Z,5.67
2018-10-17T19:30:16.956Z,5.50
2018-10-17T19:32:44.183Z,5.53
2018-10-17T19:35:11.409Z,5.60
2018-10-17T19:37:38.546Z,5.07
2018-10-17T19:40:06.316Z,5.03
2018-10-17T19:42:33.568Z,5.60
2018-10-17T19:45:00.740Z,5.10
2018-10-17T19:47:28.367Z,4.50
2018-10-17T19:49:55.713Z,5.37
2018-10-17T19:52:22.924Z,4.87
2018-10-17T19:54:50.225Z,4.87
2018-10-17T19:57:17.659Z,4.80
2018-10-17T19:59:44.769Z,10.30
2018-10-17T20:02:12.012Z,10.53
2018-10-17T20:04:39.144Z,6.33
2018-10-17T20:07:06.467Z,7.97
2018-10-17T20:09:33.612Z,7.87
2018-10-17T20:12:00.815Z,6.10
2018-10-17T20:14:28.066Z,9.07
2018-10-17T20:16:55.208Z,11.13
2018-10-17T20:19:22.433Z,6.10
2018-10-17T20:21:49.613Z,5.17
2018-10-17T20:24:16.948Z,5.50
2018-10-17T20:26:44.152Z,4.50
2018-10-17T20:29:11.320Z,5.30
2018-10-17T20:31:38.688Z,5.10
2018-10-17T20:34:05.932Z,4.73
2018-10-17T20:36:33.864Z,4.97
2018-10-17T20:39:01.072Z,5.47
2018-10-17T20:41:29.392Z,5.30
2018-10-17T20:43:56.656Z,5.30
2018-10-17T20:46:23.903Z,4.63
2018-10-17T20:48:51.180Z,4.90
2018-10-17T20:51:18.404Z,5.00
2018-10-17T20:53:45.622Z,5.37
2018-10-17T20:56:12.937Z,5.43
2018-10-17T20:58:40.764Z,5.30
2018-10-17T21:01:07.968Z,5.43
2018-10-17T21:03:35.132Z,5.33
2018-10-17T21:06:02.373Z,5.07
2018-10-17T21:08:29.609Z,4.47
2018-10-17T21:10:56.854Z,5.10
2018-10-17T21:13:24.079Z,5.83
2018-10-17T21:15:51.469Z,5.37
2018-10-17T21:18:18.785Z,5.50
2018-10-17T21:20:45.912Z,5.40
2018-10-17T21:23:13.094Z,5.30
2018-10-17T21:25:40.320Z,5.47
2018-10-17T21:28:07.729Z,6.97
2018-10-17T21:30:34.955Z,6.90
2018-10-17T21:33:02.115Z,6.23
2018-10-17T21:35:29.329Z,5.43
2018-10-17T21:37:56.564Z,6.17
2018-10-17T21:40:23.679Z,4.90
2018-10-17T21:42:50.872Z,4.93
2018-10-17T21:45:18.107Z,5.40
2018-10-17T21:47:45.292Z,12.27
2018-10-17T21:50:12.544Z,15.33
2018-10-17T21:52:39.709Z,11.43
2018-10-17T21:55:06.938Z,10.03
2018-10-17T21:57:34.115Z,10.20
2018-10-17T22:00:01.880Z,10.93
2018-10-17T22:02:29.187Z,7.40
2018-10-17T22:04:56.485Z,6.17
2018-10-17T22:07:23.724Z,6.63
2018-10-17T22:09:51.035Z,5.63
2018-10-17T22:12:18.149Z,5.80
2018-10-17T22:14:45.366Z,5.63
2018-10-17T22:17:12.545Z,5.60
2018-10-17T22:19:40.160Z,5.40
2018-10-17T22:22:07.912Z,5.57
2018-10-17T22:24:35.148Z,5.37
2018-10-17T22:27:02.341Z,5.33
2018-10-17T22:29:29.705Z,5.37
2018-10-17T22:31:56.918Z,5.27
2018-10-17T22:34:24.136Z,5.20
2018-10-17T22:36:51.448Z,5.20
2018-10-17T22:39:18.576Z,5.87
2018-10-17T22:41:45.752Z,6.13
2018-10-17T22:44:13.922Z,5.23
2018-10-17T22:46:41.482Z,5.27
2018-10-17T22:49:09.527Z,5.87
2018-10-17T22:51:37.308Z,5.20
2018-10-17T22:54:04.965Z,5.50
2018-10-17T22:56:32.158Z,4.90
2018-10-17T22:58:59.338Z,5.10
2018-10-17T23:01:26.555Z,5.60
2018-10-17T23:03:53.780Z,5.80
2018-10-17T23:06:20.901Z,3.97
2018-10-17T23:08:48.099Z,5.60
2018-10-17T23:11:15.332Z,4.97
2018-10-17T23:13:42.556Z,5.47
2018-10-17T23:16:09.933Z,5.23
2018-10-17T23:18:37.109Z,5.63
2018-10-17T23:21:04.347Z,5.93
2018-10-17T23:23:31.574Z,5.30
2018-10-17T23:25:58.825Z,4.53
2018-10-17T23:28:26.030Z,13.27
2018-10-17T23:30:53.189Z,8.87
2018-10-17T23:33:20.395Z,15.33
2018-10-17T23:35:47.545Z,10.33
2018-10-17T23:38:14.800Z,9.33
2018-10-17T23:40:41.941Z,8.00
2018-10-17T23:43:09.816Z,7.20
2018-10-17T23:45:37.012Z,9.20
2018-10-17T23:48:05.379Z,10.47
2018-10-17T23:50:32.545Z,10.37
2018-10-17T23:52:59.716Z,9.00
2018-10-17T23:55:26.944Z,5.30
2018-10-17T23:57:54.117Z,5.97
